MMVA

Details ICAO MMVA (VSA)
Name C P A CARLOS ROVIROSA INTL
Region Mexico
Timezone America/Mexico_City (UTC-6.0)
Plans Departing 22
Arriving 35
Stats Elevation 46 ft / 14 m (AMSL)
Location 17.996986° -92.817361°
Runways 1
Magnetic Variation 1.840° E
Sunrise 2017-12-13 12:35:08 UTC / 2017-12-13 06:35:08 Local
Sunset 2017-12-13 23:38:52 UTC / 2017-12-13 17:38:52 Local
Advertisement - Login to hide

Runways

ID Width Length Bearing (true) Bearing (mag) Surface Threshold Offset Overrun Length
08 148 ft / 45 m 7,244 ft / 2,208 m 86.55° 84.71° Asphalt 0 ft / 0 m 185 ft / 56 m
26 148 ft / 45 m 7,244 ft / 2,208 m 266.55° 264.71° Asphalt 0 ft / 0 m 185 ft / 56 m

Map

Weather


0- 5 10 15 20 25 30 35+ Temperature / ° C

Clouds and Precipitation
Forecast for 2017-12-13 18:00 UTC. Updated 2 hours ago

Ground ~20,000 ft ~40,000 ft Winds

METAR

Not found

TAF

TAF AMD MMVA 131227Z 1312/1406 00000KT 1/4SM FG VV000 FM131600 06005KT 2SM HZ SCT010 FM131700 06010KT 4SM HZ SCT020 TEMPO 1318/1322 BKN015 FM140300 06005KT 5SM HZ SCT015

Frequencies

Tower 118.70 MHz VILLAHERMOSA TWR
Approach 120.70 MHz VILLAHERMOSA APP
Warning: Do not use this data for real-world aviation or navigation. No guarantee of current accuracy is given.